首页
METAR-TAF:

METAR-TAF

机场 :

多哈国际机场

多哈, 卡塔尔

纬度: 25-15-40N, 经度: 051-33-54E, 海拔: 11米

当前天气观测

该预报发布于26分钟前的08:30 UTC
风速6节,风向东北,在东转东北之间变化
温度 29°C
湿度 55%
气压 1012 hPa
能见度10公里或以上
1500米以下无云,无积雨云

METAR: OTBD 030830Z AUTO 05006KT 010V070 CAVOK 29/19 Q1012 NOSIG

时间: 11:56 (08:56 UTC)

预报

该预报发布于3小时和38分钟前的05:18 UTC
预报有效从03日的 06点(UTC)到 04日的 12点(UTC)
风速7节,风向东转东北
能見度: 8000
短暂存在
从 03日的 06点(UTC)到 03日的 15点(UTC)
风速7节,风向东南
能見度: 6000
少量云层高于3500英尺
多云层高于8000英尺
小雨

TAF: OTBD 030518Z 0306/0412 07007KT 8000 NSC TEMPO 0306/0315 14007KT 6000 -RA FEW035 BKN080

超过4000个机场的气象观测和天气预报(METAR&TAF报告)。

可查询的气象台以黄色和红色小点在地图上表示。

将鼠标移到小点上方,可查看气象台名称。

然后点击查看天气观测和预报。

如需切换地图:点击带黑十字的绿色按钮放大地图;点击带横线的绿色按钮缩小地图;或者点击绿色箭头查看邻近地区的地图。


METAR-TAF: